createdAt,value
2023-12-16T00:01:11.651Z,13.73
2023-12-16T00:03:38.301Z,7.97
2023-12-16T00:06:05.264Z,14.90
2023-12-16T00:08:31.903Z,11.68
2023-12-16T00:10:58.523Z,9.93
2023-12-16T00:13:25.610Z,14.63
2023-12-16T00:15:52.289Z,12.07
2023-12-16T00:18:19.046Z,8.45
2023-12-16T00:20:46.829Z,10.50
2023-12-16T00:23:13.441Z,6.50
2023-12-16T00:25:40.318Z,8.15
2023-12-16T00:28:06.972Z,10.57
2023-12-16T00:30:33.601Z,14.90
2023-12-16T00:33:00.482Z,8.68
2023-12-16T00:35:27.765Z,16.73
2023-12-16T00:37:54.303Z,10.35
2023-12-16T00:40:20.976Z,16.48
2023-12-16T00:42:47.614Z,10.15
2023-12-16T00:45:14.303Z,9.50
2023-12-16T00:47:41.202Z,6.82
2023-12-16T00:50:09.883Z,6.93
2023-12-16T00:52:36.782Z,12.55
2023-12-16T00:55:04.364Z,10.82
2023-12-16T00:57:30.966Z,13.60
2023-12-16T00:59:57.478Z,8.90
2023-12-16T01:02:24.049Z,10.65
2023-12-16T01:04:50.662Z,7.43
2023-12-16T01:07:17.286Z,7.18
2023-12-16T01:09:43.875Z,11.07
2023-12-16T01:12:10.487Z,6.97
2023-12-16T01:14:37.120Z,12.70
2023-12-16T01:17:03.954Z,16.23
2023-12-16T01:19:30.671Z,11.18
2023-12-16T01:21:57.702Z,10.48
2023-12-16T01:24:24.386Z,8.48
2023-12-16T01:26:50.933Z,12.75
2023-12-16T01:29:18.372Z,11.25
2023-12-16T01:31:45.029Z,12.00
2023-12-16T01:34:11.662Z,10.02
2023-12-16T01:36:38.226Z,13.00
2023-12-16T01:39:04.848Z,14.40
2023-12-16T01:41:31.443Z,10.13
2023-12-16T01:43:57.962Z,11.30
2023-12-16T01:46:25.088Z,14.98
2023-12-16T01:48:51.995Z,13.75
2023-12-16T01:51:18.794Z,12.90
2023-12-16T01:53:46.947Z,10.75
2023-12-16T01:56:14.146Z,10.85
2023-12-16T01:58:40.801Z,9.45
2023-12-16T02:01:07.544Z,10.50
2023-12-16T02:03:36.682Z,10.55
2023-12-16T02:06:04.957Z,8.93
2023-12-16T02:08:31.566Z,7.38
2023-12-16T02:10:58.187Z,9.27
2023-12-16T02:13:25.481Z,8.90
2023-12-16T02:15:52.407Z,12.48
2023-12-16T02:18:19.314Z,10.82
2023-12-16T02:20:47.605Z,13.43
2023-12-16T02:23:18.359Z,9.40
2023-12-16T02:25:45.696Z,8.35
2023-12-16T02:28:12.618Z,15.90
2023-12-16T02:30:39.682Z,7.60
2023-12-16T02:33:06.499Z,8.18
2023-12-16T02:35:33.217Z,9.23
2023-12-16T02:37:59.855Z,11.75
2023-12-16T02:40:26.640Z,12.80
2023-12-16T02:42:53.687Z,13.73
2023-12-16T02:45:20.321Z,14.77
2023-12-16T02:47:47.194Z,14.68
2023-12-16T02:50:13.866Z,10.70
2023-12-16T02:52:40.488Z,7.35
2023-12-16T02:55:07.294Z,8.95
2023-12-16T02:57:33.864Z,13.25
2023-12-16T03:00:00.612Z,8.82
2023-12-16T03:02:27.282Z,15.07
2023-12-16T03:04:53.841Z,17.80
2023-12-16T03:07:20.566Z,8.25
2023-12-16T03:09:47.133Z,13.50
2023-12-16T03:12:15.160Z,16.65
2023-12-16T03:14:42.796Z,12.80
2023-12-16T03:17:09.958Z,12.40
2023-12-16T03:19:36.603Z,12.52
2023-12-16T03:22:03.461Z,13.13
2023-12-16T03:24:30.388Z,8.00
2023-12-16T03:26:56.929Z,4.97
2023-12-16T03:29:23.585Z,13.18
2023-12-16T03:31:50.390Z,11.18
2023-12-16T03:34:17.226Z,8.40
2023-12-16T03:36:44.699Z,8.15
2023-12-16T03:39:11.309Z,8.77
2023-12-16T03:41:37.956Z,8.73
2023-12-16T03:44:05.828Z,8.27
2023-12-16T03:46:32.516Z,9.55
2023-12-16T03:48:59.182Z,7.25
2023-12-16T03:51:25.794Z,12.75
2023-12-16T03:53:52.425Z,7.00
2023-12-16T03:56:18.979Z,12.07
2023-12-16T03:58:45.521Z,9.27
2023-12-16T04:01:14.950Z,12.57
2023-12-16T04:03:41.940Z,11.55
2023-12-16T04:06:15.593Z,16.05
2023-12-16T04:08:43.018Z,10.40
2023-12-16T04:11:10.044Z,8.15
2023-12-16T04:13:37.014Z,7.22
2023-12-16T04:16:07.484Z,8.60
2023-12-16T04:18:34.256Z,12.93
2023-12-16T04:21:02.765Z,9.73
2023-12-16T04:23:29.479Z,12.93
2023-12-16T04:25:56.077Z,10.90
2023-12-16T04:28:22.684Z,6.15
2023-12-16T04:30:49.339Z,9.80
2023-12-16T04:33:16.087Z,10.85
2023-12-16T04:35:42.909Z,8.30
2023-12-16T04:38:10.348Z,9.93
2023-12-16T04:40:36.945Z,9.00
2023-12-16T04:43:03.624Z,10.15
2023-12-16T04:45:30.249Z,9.65
2023-12-16T04:47:56.917Z,10.82
2023-12-16T04:50:23.593Z,5.57
2023-12-16T04:52:50.207Z,8.98
2023-12-16T04:55:16.959Z,9.65
2023-12-16T04:57:43.720Z,22.35
2023-12-16T05:00:11.022Z,7.82
2023-12-16T05:02:37.610Z,7.35
2023-12-16T05:05:04.296Z,10.27
2023-12-16T05:07:31.025Z,8.30
2023-12-16T05:09:58.278Z,7.53
2023-12-16T05:12:35.198Z,7.95
2023-12-16T05:15:06.815Z,8.95
2023-12-16T05:17:34.007Z,12.50
2023-12-16T05:20:00.770Z,12.10
2023-12-16T05:22:27.645Z,10.43
2023-12-16T05:24:54.346Z,7.80
2023-12-16T05:27:20.993Z,8.27
2023-12-16T05:29:47.544Z,8.07
2023-12-16T05:32:14.410Z,7.82
2023-12-16T05:34:41.065Z,11.02
2023-12-16T05:37:07.736Z,7.72
2023-12-16T05:39:34.262Z,7.35
2023-12-16T05:42:00.843Z,16.92
2023-12-16T05:44:27.406Z,7.40
2023-12-16T05:46:53.947Z,11.32
2023-12-16T05:49:20.546Z,17.13
2023-12-16T05:51:47.230Z,7.50
2023-12-16T05:54:13.916Z,5.90
2023-12-16T05:56:40.431Z,7.88
2023-12-16T05:59:07.033Z,12.95
2023-12-16T06:01:33.646Z,9.73
2023-12-16T06:04:00.332Z,11.60
2023-12-16T06:06:27.113Z,10.27
2023-12-16T06:08:55.112Z,12.65
2023-12-16T06:11:24.712Z,10.77
2023-12-16T06:13:54.268Z,8.93
2023-12-16T06:16:21.327Z,7.38
2023-12-16T06:18:49.582Z,9.52
2023-12-16T06:21:16.761Z,8.23
2023-12-16T06:23:44.094Z,15.20
2023-12-16T06:26:10.970Z,8.50
2023-12-16T06:28:37.563Z,13.20
2023-12-16T06:31:04.468Z,7.78
2023-12-16T06:33:31.285Z,9.02
2023-12-16T06:35:57.931Z,14.52
2023-12-16T06:38:24.483Z,5.45
2023-12-16T06:40:51.300Z,7.10
2023-12-16T06:43:18.145Z,11.63
2023-12-16T06:45:44.777Z,11.95
2023-12-16T06:48:11.460Z,13.48
2023-12-16T06:50:38.137Z,11.43
2023-12-16T06:53:04.898Z,6.50
2023-12-16T06:55:31.570Z,12.43
2023-12-16T06:57:58.130Z,14.13
2023-12-16T07:00:24.877Z,11.20
2023-12-16T07:02:51.453Z,11.07
2023-12-16T07:05:18.083Z,9.07
2023-12-16T07:07:45.873Z,9.57
2023-12-16T07:10:13.186Z,13.23
2023-12-16T07:12:39.932Z,11.27
2023-12-16T07:15:08.439Z,10.45
2023-12-16T07:17:35.094Z,15.88
2023-12-16T07:20:02.001Z,10.30
2023-12-16T07:22:31.050Z,10.60
2023-12-16T07:25:01.862Z,8.68
2023-12-16T07:27:30.400Z,13.00
2023-12-16T07:29:57.060Z,11.38
2023-12-16T07:32:24.418Z,6.55
2023-12-16T07:34:51.507Z,9.27
2023-12-16T07:37:19.939Z,12.02
2023-12-16T07:39:46.721Z,8.07
2023-12-16T07:42:13.319Z,8.57
2023-12-16T07:44:40.123Z,10.73
2023-12-16T07:47:06.665Z,12.20
2023-12-16T07:49:33.261Z,10.15
2023-12-16T07:52:02.193Z,11.00
2023-12-16T07:54:29.195Z,7.88
2023-12-16T07:56:55.770Z,22.10
2023-12-16T07:59:22.484Z,13.48
2023-12-16T08:01:54.153Z,16.58
2023-12-16T08:04:20.772Z,7.63
2023-12-16T08:06:47.421Z,9.80
2023-12-16T08:09:14.516Z,14.32
2023-12-16T08:11:41.139Z,6.35
2023-12-16T08:14:08.555Z,17.67
2023-12-16T08:16:37.747Z,13.52
2023-12-16T08:19:04.554Z,17.95
2023-12-16T08:21:31.309Z,15.45
2023-12-16T08:23:57.954Z,10.95
2023-12-16T08:26:25.840Z,16.33
2023-12-16T08:28:52.397Z,7.13
2023-12-16T08:31:19.268Z,12.93
2023-12-16T08:33:45.948Z,7.43
2023-12-16T08:36:12.573Z,11.98
2023-12-16T08:38:40.291Z,12.35
2023-12-16T08:41:09.311Z,10.93
2023-12-16T08:43:36.210Z,7.72
2023-12-16T08:46:07.127Z,14.23
2023-12-16T08:48:33.837Z,7.57
2023-12-16T08:51:00.506Z,9.02
2023-12-16T08:53:27.191Z,13.40
2023-12-16T08:55:53.948Z,12.40
2023-12-16T08:58:20.924Z,12.57
2023-12-16T09:00:49.227Z,7.93
2023-12-16T09:03:16.107Z,10.38
2023-12-16T09:05:42.862Z,14.45
2023-12-16T09:08:09.436Z,15.75
2023-12-16T09:10:36.189Z,8.52
2023-12-16T09:13:02.995Z,10.50
2023-12-16T09:15:29.626Z,10.63
2023-12-16T09:17:56.285Z,17.05
2023-12-16T09:20:22.947Z,13.10
2023-12-16T09:22:49.596Z,13.68
2023-12-16T09:25:16.186Z,13.70
2023-12-16T09:27:44.554Z,10.40
2023-12-16T09:30:11.993Z,11.27
2023-12-16T09:32:38.748Z,8.10
2023-12-16T09:35:05.766Z,15.10
2023-12-16T09:37:32.435Z,18.15
2023-12-16T09:39:59.201Z,32.50
2023-12-16T09:42:27.142Z,17.75
2023-12-16T09:44:57.343Z,14.43
2023-12-16T09:47:25.522Z,12.32
2023-12-16T09:49:53.753Z,17.75
2023-12-16T09:52:20.513Z,9.77
2023-12-16T09:54:47.337Z,8.15
2023-12-16T09:57:17.861Z,8.65
2023-12-16T09:59:44.710Z,10.80
2023-12-16T10:02:20.771Z,17.85
2023-12-16T10:04:49.553Z,8.10
2023-12-16T10:07:16.144Z,7.90
2023-12-16T10:09:42.725Z,16.52
2023-12-16T10:12:10.448Z,12.43
2023-12-16T10:14:51.590Z,12.30
2023-12-16T10:17:22.329Z,18.45
2023-12-16T10:19:50.212Z,11.23
2023-12-16T10:22:19.115Z,10.38
2023-12-16T10:24:46.271Z,12.38
2023-12-16T10:27:13.268Z,16.63
2023-12-16T10:29:50.614Z,9.15
2023-12-16T10:32:27.859Z,11.32
2023-12-16T10:34:55.095Z,10.57
2023-12-16T10:37:21.710Z,15.68
2023-12-16T10:39:48.291Z,13.93
2023-12-16T10:42:14.817Z,12.48
2023-12-16T10:44:41.384Z,11.77
2023-12-16T10:47:10.638Z,14.35
2023-12-16T10:49:43.677Z,9.70
2023-12-16T10:52:18.365Z,16.48
2023-12-16T10:55:04.017Z,19.23
2023-12-16T10:57:42.892Z,8.55
2023-12-16T11:00:12.940Z,19.15
2023-12-16T11:02:50.115Z,17.60
2023-12-16T11:05:23.115Z,8.73
2023-12-16T11:07:50.551Z,14.13
2023-12-16T11:10:19.266Z,12.00
2023-12-16T11:12:46.806Z,14.30
2023-12-16T11:15:14.235Z,14.73
2023-12-16T11:18:13.402Z,11.00
2023-12-16T11:20:43.684Z,14.98
2023-12-16T11:23:11.637Z,17.65
2023-12-16T11:25:39.001Z,14.85
2023-12-16T11:28:06.762Z,15.20
2023-12-16T11:30:37.064Z,13.48
2023-12-16T11:33:05.443Z,8.60
2023-12-16T11:35:38.492Z,11.07
2023-12-16T11:38:06.145Z,14.82
2023-12-16T11:40:45.654Z,12.30
2023-12-16T11:43:12.957Z,16.52
2023-12-16T11:45:40.425Z,12.38
2023-12-16T11:48:08.169Z,23.83
2023-12-16T11:50:38.262Z,14.05
2023-12-16T11:53:05.467Z,16.47
2023-12-16T11:55:32.431Z,16.35
2023-12-16T11:57:59.043Z,15.05
2023-12-16T12:00:25.612Z,14.15
2023-12-16T12:02:52.666Z,14.45
2023-12-16T12:05:19.974Z,17.60
2023-12-16T12:07:46.941Z,16.02
2023-12-16T12:10:14.202Z,15.80
2023-12-16T12:12:41.413Z,18.13
2023-12-16T12:15:09.723Z,17.80
2023-12-16T12:17:39.318Z,22.95
2023-12-16T12:20:07.825Z,15.82
2023-12-16T12:22:35.156Z,17.23
2023-12-16T12:25:01.859Z,18.15
2023-12-16T12:27:31.363Z,18.17
2023-12-16T12:30:05.953Z,38.80
2023-12-16T12:32:34.271Z,19.63
2023-12-16T12:35:05.190Z,22.48
2023-12-16T12:37:46.865Z,27.38
2023-12-16T12:40:14.147Z,13.32
2023-12-16T12:42:56.089Z,19.65
2023-12-16T12:45:30.759Z,20.17
2023-12-16T12:48:10.961Z,16.33
2023-12-16T12:50:38.064Z,24.50
2023-12-16T12:53:25.759Z,32.60
2023-12-16T12:55:55.597Z,21.50
2023-12-16T12:58:29.653Z,20.42
2023-12-16T13:01:05.939Z,14.18
2023-12-16T13:03:34.933Z,16.75
2023-12-16T13:06:06.596Z,14.68
2023-12-16T13:08:35.108Z,20.98
2023-12-16T13:11:02.135Z,18.40
2023-12-16T13:13:29.039Z,17.63
2023-12-16T13:15:57.542Z,22.55
2023-12-16T13:18:27.041Z,18.20
2023-12-16T13:20:55.236Z,15.23
2023-12-16T13:23:22.005Z,16.92
2023-12-16T13:25:51.120Z,3.25
2023-12-16T13:28:18.309Z,0.70
2023-12-16T13:30:44.987Z,3.42
2023-12-16T13:33:11.878Z,0.88
2023-12-16T13:35:38.667Z,0.57
2023-12-16T13:38:05.951Z,0.93
2023-12-16T13:40:33.310Z,0.98
2023-12-16T13:43:02.801Z,1.20
2023-12-16T13:45:31.113Z,3.55
2023-12-16T13:47:58.578Z,9.05
2023-12-16T13:50:25.674Z,3.78
2023-12-16T13:52:52.286Z,7.35
2023-12-16T13:55:19.480Z,4.90
2023-12-16T13:57:46.091Z,4.10
2023-12-16T14:00:13.349Z,3.47
2023-12-16T14:02:40.036Z,4.97
2023-12-16T14:05:06.956Z,1.27
2023-12-16T14:07:35.481Z,2.13
2023-12-16T14:10:02.858Z,1.83
2023-12-16T14:12:29.435Z,1.63
2023-12-16T14:14:56.683Z,1.55
2023-12-16T14:17:23.321Z,1.90
2023-12-16T14:19:49.973Z,2.35
2023-12-16T14:22:16.528Z,4.75
2023-12-16T14:24:43.099Z,4.95
2023-12-16T14:27:09.881Z,1.98
2023-12-16T14:29:36.984Z,5.63
2023-12-16T14:32:03.798Z,4.93
2023-12-16T14:34:30.711Z,5.28
2023-12-16T14:36:57.482Z,1.58
2023-12-16T14:39:24.154Z,1.98
2023-12-16T14:41:50.786Z,2.17
2023-12-16T14:44:17.418Z,1.05
2023-12-16T14:46:44.042Z,1.02
2023-12-16T14:49:12.150Z,3.50
2023-12-16T14:51:39.662Z,2.03
2023-12-16T14:54:06.758Z,1.40
2023-12-16T14:56:33.754Z,2.88
2023-12-16T14:59:00.997Z,2.38
2023-12-16T15:01:27.677Z,1.63
2023-12-16T15:03:56.011Z,9.00
2023-12-16T15:06:30.028Z,2.35
2023-12-16T15:08:58.383Z,1.35
2023-12-16T15:11:25.062Z,3.42
2023-12-16T15:13:51.689Z,0.82
2023-12-16T15:16:20.989Z,0.80
2023-12-16T15:18:49.370Z,2.70
2023-12-16T15:21:16.626Z,1.00
2023-12-16T15:23:43.432Z,0.88
2023-12-16T15:26:10.181Z,1.50
2023-12-16T15:28:36.834Z,1.15
2023-12-16T15:31:03.718Z,0.93
2023-12-16T15:33:30.593Z,1.30
2023-12-16T15:35:57.352Z,1.77
2023-12-16T15:38:24.096Z,0.93
2023-12-16T15:40:50.861Z,0.60
2023-12-16T15:43:17.415Z,1.35
2023-12-16T15:45:44.040Z,3.15
2023-12-16T15:48:10.793Z,2.38
2023-12-16T15:50:37.554Z,3.05
2023-12-16T15:53:05.550Z,1.48
2023-12-16T15:55:32.372Z,2.45
2023-12-16T15:57:59.881Z,2.10
2023-12-16T16:00:27.760Z,3.15
2023-12-16T16:02:57.152Z,2.33
2023-12-16T16:05:26.119Z,1.88
2023-12-16T16:07:53.496Z,2.03
2023-12-16T16:10:20.367Z,3.13
2023-12-16T16:12:47.614Z,2.38
2023-12-16T16:15:17.672Z,1.48
2023-12-16T16:17:47.038Z,0.98
2023-12-16T16:20:14.384Z,1.50
2023-12-16T16:22:41.027Z,3.20
2023-12-16T16:25:10.064Z,0.98
2023-12-16T16:27:37.826Z,2.75
2023-12-16T16:30:06.139Z,1.05
2023-12-16T16:32:33.419Z,2.67
2023-12-16T16:35:00.604Z,1.30
2023-12-16T16:37:31.148Z,2.57
2023-12-16T16:39:59.724Z,5.78
2023-12-16T16:42:28.416Z,7.57
2023-12-16T16:44:55.645Z,6.47
2023-12-16T16:47:22.357Z,6.25
2023-12-16T16:49:49.241Z,2.92
2023-12-16T16:52:15.982Z,1.98
2023-12-16T16:54:44.351Z,2.25
2023-12-16T16:57:12.355Z,1.50
2023-12-16T16:59:40.681Z,2.53
2023-12-16T17:02:07.982Z,2.47
2023-12-16T17:04:34.804Z,2.08
2023-12-16T17:07:01.584Z,2.75
2023-12-16T17:09:28.142Z,0.75
2023-12-16T17:11:54.947Z,2.40
2023-12-16T17:14:21.887Z,3.10
2023-12-16T17:16:48.568Z,0.65
2023-12-16T17:19:17.607Z,2.90
2023-12-16T17:21:45.745Z,1.20
2023-12-16T17:24:13.236Z,1.25
2023-12-16T17:26:41.497Z,9.88
2023-12-16T17:29:08.875Z,6.32
2023-12-16T17:31:37.833Z,2.00
2023-12-16T17:34:04.852Z,5.00
2023-12-16T17:36:31.549Z,1.20
2023-12-16T17:41:24.743Z,1.43
2023-12-16T17:43:51.293Z,2.60
2023-12-16T17:46:18.074Z,1.55
2023-12-16T17:48:44.811Z,2.08
2023-12-16T17:51:11.892Z,1.10
2023-12-16T17:53:38.788Z,1.70
2023-12-16T17:56:05.996Z,2.95
2023-12-16T17:58:36.055Z,1.42
2023-12-16T18:01:04.086Z,1.27
2023-12-16T18:03:30.811Z,0.70
2023-12-16T18:05:57.809Z,3.07
2023-12-16T18:08:24.593Z,1.15
2023-12-16T18:10:53.017Z,1.38
2023-12-16T18:13:19.765Z,14.80
2023-12-16T18:15:46.472Z,1.23
2023-12-16T18:18:13.309Z,3.63
2023-12-16T18:20:59.288Z,1.58
2023-12-16T18:23:27.621Z,1.17
2023-12-16T18:25:54.388Z,3.80
2023-12-16T18:28:21.207Z,1.35
2023-12-16T18:30:47.994Z,0.83
2023-12-16T18:33:14.868Z,1.10
2023-12-16T18:35:41.767Z,1.17
2023-12-16T18:38:08.540Z,0.80
2023-12-16T18:40:38.674Z,1.65
2023-12-16T18:43:06.404Z,0.70
2023-12-16T18:45:34.104Z,3.33
2023-12-16T18:48:01.263Z,8.07
2023-12-16T18:50:28.146Z,6.03
2023-12-16T18:52:55.319Z,3.08
2023-12-16T18:55:23.863Z,1.67
2023-12-16T18:57:51.007Z,1.05
2023-12-16T19:00:19.084Z,1.13
2023-12-16T19:02:45.970Z,1.00
2023-12-16T19:05:12.651Z,2.42
2023-12-16T19:07:39.956Z,1.13
2023-12-16T19:10:08.416Z,1.05
2023-12-16T19:12:35.662Z,1.58
2023-12-16T19:15:03.661Z,1.77
2023-12-16T19:17:32.611Z,1.90
2023-12-16T19:19:59.817Z,0.50
2023-12-16T19:22:26.420Z,0.90
2023-12-16T19:24:53.574Z,1.45
2023-12-16T19:27:21.348Z,1.63
2023-12-16T19:29:48.072Z,3.08
2023-12-16T19:32:14.787Z,0.70
2023-12-16T19:34:41.412Z,4.63
2023-12-16T19:37:08.016Z,1.77
2023-12-16T19:39:34.809Z,2.38
2023-12-16T19:42:03.373Z,0.88
2023-12-16T19:44:31.659Z,1.30
2023-12-16T19:46:58.232Z,1.73
2023-12-16T19:49:25.020Z,1.42
2023-12-16T19:51:51.771Z,1.88
2023-12-16T19:54:19.444Z,1.42
2023-12-16T19:56:46.192Z,0.73
2023-12-16T19:59:12.803Z,1.42
2023-12-16T20:01:46.331Z,3.97
2023-12-16T20:04:13.415Z,1.02
2023-12-16T20:06:40.538Z,3.55
2023-12-16T20:09:09.520Z,2.13
2023-12-16T20:11:36.990Z,1.42
2023-12-16T20:14:04.744Z,4.22
2023-12-16T20:16:31.541Z,3.88
2023-12-16T20:18:58.577Z,4.72
2023-12-16T20:21:25.410Z,1.43
2023-12-16T20:23:52.368Z,5.03
2023-12-16T20:26:19.315Z,3.83
2023-12-16T20:28:45.915Z,2.40
2023-12-16T20:31:12.597Z,3.05
2023-12-16T20:33:39.316Z,2.47
2023-12-16T20:36:07.738Z,1.95
2023-12-16T20:38:52.553Z,2.45
2023-12-16T20:41:19.131Z,1.48
2023-12-16T20:43:45.744Z,2.33
2023-12-16T20:46:12.962Z,2.73
2023-12-16T20:48:43.144Z,1.48
2023-12-16T20:51:11.104Z,1.75
2023-12-16T20:53:37.928Z,0.77
2023-12-16T20:56:04.775Z,1.35
2023-12-16T20:58:31.397Z,0.80
2023-12-16T21:00:59.605Z,0.88
2023-12-16T21:03:26.413Z,0.50
2023-12-16T21:05:53.177Z,0.82
2023-12-16T21:08:19.977Z,2.42
2023-12-16T21:10:46.630Z,0.60
2023-12-16T21:13:13.904Z,1.42
2023-12-16T21:15:40.543Z,0.85
2023-12-16T21:18:07.496Z,1.58
2023-12-16T21:20:34.215Z,1.50
2023-12-16T21:23:00.786Z,1.57
2023-12-16T21:25:27.535Z,0.90
2023-12-16T21:27:54.474Z,0.40
2023-12-16T21:30:24.674Z,1.95
2023-12-16T21:32:52.090Z,1.10
2023-12-16T21:35:19.339Z,0.40
2023-12-16T21:37:46.125Z,0.82
2023-12-16T21:40:12.729Z,1.33
2023-12-16T21:42:39.286Z,0.40
2023-12-16T21:45:06.174Z,1.40
2023-12-16T21:47:32.792Z,0.63
2023-12-16T21:49:59.405Z,2.75
2023-12-16T21:52:29.047Z,0.60
2023-12-16T21:54:55.916Z,0.43
2023-12-16T21:57:24.116Z,0.75
2023-12-16T21:59:50.835Z,0.77
2023-12-16T22:02:17.459Z,1.13
2023-12-16T22:04:44.245Z,1.23
2023-12-16T22:07:10.914Z,0.80
2023-12-16T22:09:37.592Z,0.50
2023-12-16T22:12:04.374Z,0.67
2023-12-16T22:14:30.988Z,0.73
2023-12-16T22:16:57.982Z,0.80
2023-12-16T22:19:24.901Z,0.40
2023-12-16T22:21:51.519Z,0.50
2023-12-16T22:24:19.187Z,0.47
2023-12-16T22:26:46.622Z,0.40
2023-12-16T22:29:13.314Z,3.70
2023-12-16T22:31:41.638Z,0.50
2023-12-16T22:34:08.830Z,1.50
2023-12-16T22:36:35.573Z,0.40
2023-12-16T22:39:02.205Z,0.40
2023-12-16T22:41:28.940Z,0.85
2023-12-16T22:43:55.476Z,5.10
2023-12-16T22:46:22.054Z,0.63
2023-12-16T22:48:48.946Z,1.73
2023-12-16T22:51:15.897Z,0.70
2023-12-16T22:53:42.746Z,0.43
2023-12-16T22:56:09.707Z,2.45
2023-12-16T22:58:40.511Z,0.73
2023-12-16T23:01:09.405Z,0.80
2023-12-16T23:03:36.457Z,0.73
2023-12-16T23:06:03.192Z,0.60
2023-12-16T23:08:29.749Z,0.50
2023-12-16T23:10:56.436Z,1.13
2023-12-16T23:13:23.035Z,0.50
2023-12-16T23:15:49.580Z,1.98
2023-12-16T23:18:16.292Z,1.00
2023-12-16T23:20:43.029Z,0.45
2023-12-16T23:23:09.598Z,0.45
2023-12-16T23:25:36.180Z,4.07
2023-12-16T23:28:03.594Z,0.50
2023-12-16T23:30:30.353Z,1.35
2023-12-16T23:32:57.421Z,0.60
2023-12-16T23:35:24.260Z,0.90
2023-12-16T23:37:50.945Z,0.67
2023-12-16T23:40:17.622Z,0.63
2023-12-16T23:42:44.285Z,0.50
2023-12-16T23:45:11.762Z,0.75
2023-12-16T23:47:38.874Z,0.38
2023-12-16T23:50:06.284Z,0.60
2023-12-16T23:52:34.111Z,0.40
2023-12-16T23:55:00.916Z,0.95
2023-12-16T23:57:27.678Z,0.43
2023-12-16T23:59:54.405Z,7.75
